sensor_id;sensor_type;location;lat;lon;timestamp;P1;durP1;ratioP1;P2;durP2;ratioP2
42760;SDS011;31672;47.638;19.026;2023-07-13T00:00:55;3.83;;;2.10;;
42760;SDS011;31672;47.638;19.026;2023-07-13T00:05:59;5.05;;;2.20;;
42760;SDS011;31672;47.638;19.026;2023-07-13T00:11:04;5.28;;;2.25;;
42760;SDS011;31672;47.638;19.026;2023-07-13T00:16:10;5.32;;;1.60;;
42760;SDS011;31672;47.638;19.026;2023-07-13T00:21:16;3.85;;;1.45;;
42760;SDS011;31672;47.638;19.026;2023-07-13T00:26:20;3.08;;;1.13;;
42760;SDS011;31672;47.638;19.026;2023-07-13T00:31:24;2.03;;;1.20;;
42760;SDS011;31672;47.638;19.026;2023-07-13T00:36:29;2.88;;;1.23;;
42760;SDS011;31672;47.638;19.026;2023-07-13T00:41:33;4.72;;;1.80;;
42760;SDS011;31672;47.638;19.026;2023-07-13T00:46:38;4.47;;;1.70;;
42760;SDS011;31672;47.638;19.026;2023-07-13T00:57:11;2.28;;;1.10;;
42760;SDS011;31672;47.638;19.026;2023-07-13T01:02:19;2.53;;;1.58;;
42760;SDS011;31672;47.638;19.026;2023-07-13T01:07:24;5.35;;;1.65;;
42760;SDS011;31672;47.638;19.026;2023-07-13T01:12:28;3.30;;;1.60;;
42760;SDS011;31672;47.638;19.026;2023-07-13T01:17:33;2.05;;;1.42;;
42760;SDS011;31672;47.638;19.026;2023-07-13T01:22:38;2.95;;;1.50;;
42760;SDS011;31672;47.638;19.026;2023-07-13T01:27:41;3.72;;;1.60;;
42760;SDS011;31672;47.638;19.026;2023-07-13T01:32:45;3.85;;;1.60;;
42760;SDS011;31672;47.638;19.026;2023-07-13T01:37:54;3.88;;;1.52;;
42760;SDS011;31672;47.638;19.026;2023-07-13T01:43:00;2.22;;;1.10;;
42760;SDS011;31672;47.638;19.026;2023-07-13T01:48:04;2.30;;;1.25;;
42760;SDS011;31672;47.638;19.026;2023-07-13T01:53:09;2.67;;;1.45;;
42760;SDS011;31672;47.638;19.026;2023-07-13T01:58:13;3.15;;;1.40;;
42760;SDS011;31672;47.638;19.026;2023-07-13T02:03:17;1.55;;;0.80;;
42760;SDS011;31672;47.638;19.026;2023-07-13T02:08:21;2.63;;;1.15;;
42760;SDS011;31672;47.638;19.026;2023-07-13T02:13:25;1.95;;;1.13;;
42760;SDS011;31672;47.638;19.026;2023-07-13T02:18:30;5.15;;;2.05;;
42760;SDS011;31672;47.638;19.026;2023-07-13T02:23:34;3.65;;;1.55;;
42760;SDS011;31672;47.638;19.026;2023-07-13T02:28:37;2.95;;;1.80;;
42760;SDS011;31672;47.638;19.026;2023-07-13T02:33:41;4.57;;;1.83;;
42760;SDS011;31672;47.638;19.026;2023-07-13T02:38:45;4.68;;;2.08;;
42760;SDS011;31672;47.638;19.026;2023-07-13T02:43:49;4.88;;;1.80;;
42760;SDS011;31672;47.638;19.026;2023-07-13T02:48:52;3.63;;;1.75;;
42760;SDS011;31672;47.638;19.026;2023-07-13T02:53:56;4.47;;;1.73;;
42760;SDS011;31672;47.638;19.026;2023-07-13T02:59:00;5.10;;;2.70;;
42760;SDS011;31672;47.638;19.026;2023-07-13T03:04:05;4.28;;;2.28;;
42760;SDS011;31672;47.638;19.026;2023-07-13T03:09:09;3.60;;;2.20;;
42760;SDS011;31672;47.638;19.026;2023-07-13T03:14:13;4.90;;;1.40;;
42760;SDS011;31672;47.638;19.026;2023-07-13T03:19:17;4.07;;;1.80;;
42760;SDS011;31672;47.638;19.026;2023-07-13T03:24:21;1.83;;;1.50;;
42760;SDS011;31672;47.638;19.026;2023-07-13T03:29:28;4.70;;;1.90;;
42760;SDS011;31672;47.638;19.026;2023-07-13T03:34:32;3.75;;;2.80;;
42760;SDS011;31672;47.638;19.026;2023-07-13T03:39:35;2.42;;;1.70;;
42760;SDS011;31672;47.638;19.026;2023-07-13T03:44:41;3.25;;;1.67;;
42760;SDS011;31672;47.638;19.026;2023-07-13T03:49:49;3.67;;;1.60;;
42760;SDS011;31672;47.638;19.026;2023-07-13T03:54:52;3.00;;;1.58;;
42760;SDS011;31672;47.638;19.026;2023-07-13T03:59:56;5.28;;;2.13;;
42760;SDS011;31672;47.638;19.026;2023-07-13T04:05:00;5.20;;;1.75;;
42760;SDS011;31672;47.638;19.026;2023-07-13T04:10:03;3.08;;;1.58;;
42760;SDS011;31672;47.638;19.026;2023-07-13T04:15:08;2.50;;;1.70;;
42760;SDS011;31672;47.638;19.026;2023-07-13T04:20:12;2.80;;;1.38;;
42760;SDS011;31672;47.638;19.026;2023-07-13T04:25:16;3.38;;;1.25;;
42760;SDS011;31672;47.638;19.026;2023-07-13T04:30:20;2.38;;;1.20;;
42760;SDS011;31672;47.638;19.026;2023-07-13T04:35:24;2.40;;;1.75;;
42760;SDS011;31672;47.638;19.026;2023-07-13T04:40:28;4.90;;;1.92;;
42760;SDS011;31672;47.638;19.026;2023-07-13T04:45:32;3.03;;;1.63;;
42760;SDS011;31672;47.638;19.026;2023-07-13T04:50:37;4.68;;;1.85;;
42760;SDS011;31672;47.638;19.026;2023-07-13T04:55:41;4.97;;;1.90;;
42760;SDS011;31672;47.638;19.026;2023-07-13T05:00:45;3.13;;;1.77;;
42760;SDS011;31672;47.638;19.026;2023-07-13T05:05:58;5.63;;;2.28;;
42760;SDS011;31672;47.638;19.026;2023-07-13T05:11:10;5.15;;;3.03;;
42760;SDS011;31672;47.638;19.026;2023-07-13T05:16:14;9.05;;;4.47;;
42760;SDS011;31672;47.638;19.026;2023-07-13T05:21:18;7.63;;;4.55;;
42760;SDS011;31672;47.638;19.026;2023-07-13T05:26:21;7.53;;;4.20;;
42760;SDS011;31672;47.638;19.026;2023-07-13T05:31:25;6.13;;;3.65;;
42760;SDS011;31672;47.638;19.026;2023-07-13T05:36:29;3.97;;;1.98;;
42760;SDS011;31672;47.638;19.026;2023-07-13T05:41:32;6.50;;;3.42;;
42760;SDS011;31672;47.638;19.026;2023-07-13T05:46:36;7.80;;;2.67;;
42760;SDS011;31672;47.638;19.026;2023-07-13T05:51:39;7.50;;;2.58;;
42760;SDS011;31672;47.638;19.026;2023-07-13T05:56:43;4.20;;;2.65;;
42760;SDS011;31672;47.638;19.026;2023-07-13T06:01:48;2.83;;;1.98;;
42760;SDS011;31672;47.638;19.026;2023-07-13T06:06:52;4.18;;;2.45;;
42760;SDS011;31672;47.638;19.026;2023-07-13T06:11:56;4.72;;;2.08;;
42760;SDS011;31672;47.638;19.026;2023-07-13T06:17:00;4.25;;;2.17;;
42760;SDS011;31672;47.638;19.026;2023-07-13T06:22:03;7.55;;;2.50;;
42760;SDS011;31672;47.638;19.026;2023-07-13T06:27:08;7.43;;;3.40;;
42760;SDS011;31672;47.638;19.026;2023-07-13T06:32:11;3.58;;;2.25;;
42760;SDS011;31672;47.638;19.026;2023-07-13T06:37:15;3.58;;;2.25;;
42760;SDS011;31672;47.638;19.026;2023-07-13T06:42:19;4.95;;;2.78;;
42760;SDS011;31672;47.638;19.026;2023-07-13T06:47:22;4.40;;;2.63;;
42760;SDS011;31672;47.638;19.026;2023-07-13T06:52:26;0.10;;;0.10;;
42760;SDS011;31672;47.638;19.026;2023-07-13T06:57:29;0.00;;;0.00;;
42760;SDS011;31672;47.638;19.026;2023-07-13T07:02:33;0.00;;;0.00;;
42760;SDS011;31672;47.638;19.026;2023-07-13T07:07:37;0.00;;;0.00;;
42760;SDS011;31672;47.638;19.026;2023-07-13T07:12:40;0.00;;;0.00;;
42760;SDS011;31672;47.638;19.026;2023-07-13T07:17:44;0.00;;;0.00;;
42760;SDS011;31672;47.638;19.026;2023-07-13T07:22:48;3.80;;;2.38;;
42760;SDS011;31672;47.638;19.026;2023-07-13T07:27:52;3.03;;;2.30;;
42760;SDS011;31672;47.638;19.026;2023-07-13T07:32:59;3.70;;;2.35;;
42760;SDS011;31672;47.638;19.026;2023-07-13T07:38:07;4.68;;;2.30;;
42760;SDS011;31672;47.638;19.026;2023-07-13T07:43:12;3.22;;;2.05;;
42760;SDS011;31672;47.638;19.026;2023-07-13T07:48:16;2.72;;;2.03;;
42760;SDS011;31672;47.638;19.026;2023-07-13T07:53:20;3.92;;;2.13;;
42760;SDS011;31672;47.638;19.026;2023-07-13T07:58:24;3.28;;;2.08;;
42760;SDS011;31672;47.638;19.026;2023-07-13T08:03:31;2.22;;;1.70;;
42760;SDS011;31672;47.638;19.026;2023-07-13T08:08:39;3.65;;;2.17;;
42760;SDS011;31672;47.638;19.026;2023-07-13T08:13:43;2.45;;;1.83;;
42760;SDS011;31672;47.638;19.026;2023-07-13T08:18:46;4.30;;;2.30;;
42760;SDS011;31672;47.638;19.026;2023-07-13T08:23:50;2.78;;;1.50;;
42760;SDS011;31672;47.638;19.026;2023-07-13T08:28:54;3.47;;;2.13;;
42760;SDS011;31672;47.638;19.026;2023-07-13T08:33:58;3.97;;;2.00;;
42760;SDS011;31672;47.638;19.026;2023-07-13T08:39:01;3.22;;;2.00;;
42760;SDS011;31672;47.638;19.026;2023-07-13T08:44:06;1.30;;;0.93;;
42760;SDS011;31672;47.638;19.026;2023-07-13T08:49:29;2.65;;;1.20;;
42760;SDS011;31672;47.638;19.026;2023-07-13T08:59:46;3.65;;;1.75;;
42760;SDS011;31672;47.638;19.026;2023-07-13T09:04:53;3.13;;;1.83;;
42760;SDS011;31672;47.638;19.026;2023-07-13T09:10:46;3.80;;;2.22;;
42760;SDS011;31672;47.638;19.026;2023-07-13T09:16:03;3.58;;;2.20;;
42760;SDS011;31672;47.638;19.026;2023-07-13T09:21:13;4.70;;;2.10;;
42760;SDS011;31672;47.638;19.026;2023-07-13T09:26:25;6.25;;;2.10;;
42760;SDS011;31672;47.638;19.026;2023-07-13T09:31:34;3.43;;;1.97;;
42760;SDS011;31672;47.638;19.026;2023-07-13T09:36:45;3.05;;;1.85;;
42760;SDS011;31672;47.638;19.026;2023-07-13T09:47:17;2.83;;;1.98;;
42760;SDS011;31672;47.638;19.026;2023-07-13T09:52:40;3.70;;;2.10;;
42760;SDS011;31672;47.638;19.026;2023-07-13T09:57:49;2.40;;;2.10;;
42760;SDS011;31672;47.638;19.026;2023-07-13T10:02:58;3.00;;;2.05;;
42760;SDS011;31672;47.638;19.026;2023-07-13T10:08:29;2.33;;;1.98;;
42760;SDS011;31672;47.638;19.026;2023-07-13T10:13:36;4.55;;;2.20;;
42760;SDS011;31672;47.638;19.026;2023-07-13T10:18:49;4.15;;;2.70;;
42760;SDS011;31672;47.638;19.026;2023-07-13T10:24:00;3.33;;;2.22;;
42760;SDS011;31672;47.638;19.026;2023-07-13T10:29:25;2.97;;;1.80;;
42760;SDS011;31672;47.638;19.026;2023-07-13T10:34:32;3.35;;;2.25;;
42760;SDS011;31672;47.638;19.026;2023-07-13T10:39:36;4.20;;;2.20;;
42760;SDS011;31672;47.638;19.026;2023-07-13T10:44:41;3.85;;;2.22;;
42760;SDS011;31672;47.638;19.026;2023-07-13T10:49:44;2.22;;;1.70;;
42760;SDS011;31672;47.638;19.026;2023-07-13T10:54:52;3.92;;;2.22;;
42760;SDS011;31672;47.638;19.026;2023-07-13T11:15:57;3.17;;;1.67;;
42760;SDS011;31672;47.638;19.026;2023-07-13T11:21:20;2.60;;;1.77;;
42760;SDS011;31672;47.638;19.026;2023-07-13T11:26:41;2.33;;;1.58;;
42760;SDS011;31672;47.638;19.026;2023-07-13T11:31:55;2.72;;;1.40;;
42760;SDS011;31672;47.638;19.026;2023-07-13T11:37:03;2.08;;;1.40;;
42760;SDS011;31672;47.638;19.026;2023-07-13T11:42:17;2.55;;;1.88;;
42760;SDS011;31672;47.638;19.026;2023-07-13T11:47:23;2.45;;;1.50;;
42760;SDS011;31672;47.638;19.026;2023-07-13T11:52:32;2.60;;;1.73;;
42760;SDS011;31672;47.638;19.026;2023-07-13T11:57:41;2.30;;;1.70;;
42760;SDS011;31672;47.638;19.026;2023-07-13T12:02:59;2.53;;;1.90;;
42760;SDS011;31672;47.638;19.026;2023-07-13T12:08:09;2.78;;;2.05;;
42760;SDS011;31672;47.638;19.026;2023-07-13T12:13:26;3.10;;;1.65;;
42760;SDS011;31672;47.638;19.026;2023-07-13T12:18:33;3.75;;;2.28;;
42760;SDS011;31672;47.638;19.026;2023-07-13T12:23:38;2.95;;;2.10;;
42760;SDS011;31672;47.638;19.026;2023-07-13T12:28:47;2.50;;;1.90;;
42760;SDS011;31672;47.638;19.026;2023-07-13T12:33:59;3.25;;;2.03;;
42760;SDS011;31672;47.638;19.026;2023-07-13T12:39:53;2.80;;;1.63;;
42760;SDS011;31672;47.638;19.026;2023-07-13T12:44:40;3.83;;;2.17;;
42760;SDS011;31672;47.638;19.026;2023-07-13T12:49:49;3.80;;;1.88;;
42760;SDS011;31672;47.638;19.026;2023-07-13T12:55:18;2.40;;;1.70;;
42760;SDS011;31672;47.638;19.026;2023-07-13T13:00:28;2.10;;;1.90;;
42760;SDS011;31672;47.638;19.026;2023-07-13T13:05:41;3.15;;;1.92;;
42760;SDS011;31672;47.638;19.026;2023-07-13T13:10:45;3.00;;;2.03;;
42760;SDS011;31672;47.638;19.026;2023-07-13T13:15:49;4.97;;;2.08;;
42760;SDS011;31672;47.638;19.026;2023-07-13T13:20:53;2.80;;;1.60;;
42760;SDS011;31672;47.638;19.026;2023-07-13T13:25:56;2.65;;;2.03;;
42760;SDS011;31672;47.638;19.026;2023-07-13T13:31:01;2.00;;;1.60;;
42760;SDS011;31672;47.638;19.026;2023-07-13T13:36:04;2.35;;;1.75;;
42760;SDS011;31672;47.638;19.026;2023-07-13T13:41:15;2.95;;;1.73;;
42760;SDS011;31672;47.638;19.026;2023-07-13T13:46:24;2.95;;;2.00;;
42760;SDS011;31672;47.638;19.026;2023-07-13T13:51:28;2.20;;;1.63;;
42760;SDS011;31672;47.638;19.026;2023-07-13T13:56:32;2.78;;;1.90;;
42760;SDS011;31672;47.638;19.026;2023-07-13T14:01:36;3.22;;;1.92;;
42760;SDS011;31672;47.638;19.026;2023-07-13T14:06:41;5.03;;;2.08;;
42760;SDS011;31672;47.638;19.026;2023-07-13T14:11:45;2.38;;;1.90;;
42760;SDS011;31672;47.638;19.026;2023-07-13T14:21:59;3.20;;;1.50;;
42760;SDS011;31672;47.638;19.026;2023-07-13T14:27:02;2.60;;;2.10;;
42760;SDS011;31672;47.638;19.026;2023-07-13T14:32:11;2.40;;;1.70;;
42760;SDS011;31672;47.638;19.026;2023-07-13T14:37:16;3.15;;;1.98;;
42760;SDS011;31672;47.638;19.026;2023-07-13T14:42:19;3.05;;;1.70;;
42760;SDS011;31672;47.638;19.026;2023-07-13T14:47:23;2.05;;;1.75;;
42760;SDS011;31672;47.638;19.026;2023-07-13T14:52:26;3.67;;;1.77;;
42760;SDS011;31672;47.638;19.026;2023-07-13T14:57:30;3.53;;;1.92;;
42760;SDS011;31672;47.638;19.026;2023-07-13T15:02:34;2.65;;;1.80;;
42760;SDS011;31672;47.638;19.026;2023-07-13T15:07:41;4.07;;;1.80;;
42760;SDS011;31672;47.638;19.026;2023-07-13T15:12:45;3.22;;;1.90;;
42760;SDS011;31672;47.638;19.026;2023-07-13T15:17:49;3.72;;;1.90;;
42760;SDS011;31672;47.638;19.026;2023-07-13T15:22:53;2.15;;;1.60;;
42760;SDS011;31672;47.638;19.026;2023-07-13T15:27:57;3.28;;;1.80;;
42760;SDS011;31672;47.638;19.026;2023-07-13T15:33:05;4.35;;;1.90;;
42760;SDS011;31672;47.638;19.026;2023-07-13T15:38:31;3.85;;;1.80;;
42760;SDS011;31672;47.638;19.026;2023-07-13T15:43:36;3.78;;;2.00;;
42760;SDS011;31672;47.638;19.026;2023-07-13T15:48:39;3.17;;;1.80;;
42760;SDS011;31672;47.638;19.026;2023-07-13T15:53:43;2.60;;;1.90;;
42760;SDS011;31672;47.638;19.026;2023-07-13T15:58:48;3.40;;;1.95;;
42760;SDS011;31672;47.638;19.026;2023-07-13T16:03:53;2.10;;;1.70;;
42760;SDS011;31672;47.638;19.026;2023-07-13T16:08:57;2.65;;;1.90;;
42760;SDS011;31672;47.638;19.026;2023-07-13T16:14:01;7.40;;;1.83;;
42760;SDS011;31672;47.638;19.026;2023-07-13T16:19:07;2.50;;;1.77;;
42760;SDS011;31672;47.638;19.026;2023-07-13T16:24:18;2.33;;;1.73;;
42760;SDS011;31672;47.638;19.026;2023-07-13T16:29:28;4.32;;;2.10;;
42760;SDS011;31672;47.638;19.026;2023-07-13T16:34:34;3.13;;;1.70;;
42760;SDS011;31672;47.638;19.026;2023-07-13T16:39:41;3.63;;;2.30;;
42760;SDS011;31672;47.638;19.026;2023-07-13T16:44:56;3.47;;;2.10;;
42760;SDS011;31672;47.638;19.026;2023-07-13T16:50:01;3.50;;;1.73;;
42760;SDS011;31672;47.638;19.026;2023-07-13T16:55:13;3.03;;;1.90;;
42760;SDS011;31672;47.638;19.026;2023-07-13T17:00:21;2.88;;;1.65;;
42760;SDS011;31672;47.638;19.026;2023-07-13T17:05:33;2.95;;;1.70;;
42760;SDS011;31672;47.638;19.026;2023-07-13T17:10:43;2.53;;;1.83;;
42760;SDS011;31672;47.638;19.026;2023-07-13T17:15:48;5.15;;;1.73;;
42760;SDS011;31672;47.638;19.026;2023-07-13T17:20:59;3.33;;;1.88;;
42760;SDS011;31672;47.638;19.026;2023-07-13T17:26:03;3.85;;;2.28;;
42760;SDS011;31672;47.638;19.026;2023-07-13T17:31:09;4.35;;;2.03;;
42760;SDS011;31672;47.638;19.026;2023-07-13T17:36:21;3.85;;;2.10;;
42760;SDS011;31672;47.638;19.026;2023-07-13T17:41:24;4.53;;;1.83;;
42760;SDS011;31672;47.638;19.026;2023-07-13T17:46:30;8.57;;;2.25;;
42760;SDS011;31672;47.638;19.026;2023-07-13T17:51:37;2.60;;;1.67;;
42760;SDS011;31672;47.638;19.026;2023-07-13T17:56:42;2.20;;;1.30;;
42760;SDS011;31672;47.638;19.026;2023-07-13T18:01:46;3.75;;;2.80;;
42760;SDS011;31672;47.638;19.026;2023-07-13T18:06:51;11.07;;;2.08;;
42760;SDS011;31672;47.638;19.026;2023-07-13T18:12:11;3.75;;;1.75;;
42760;SDS011;31672;47.638;19.026;2023-07-13T18:17:21;2.28;;;1.45;;
42760;SDS011;31672;47.638;19.026;2023-07-13T18:22:25;2.72;;;1.85;;
42760;SDS011;31672;47.638;19.026;2023-07-13T18:27:29;2.63;;;1.58;;
42760;SDS011;31672;47.638;19.026;2023-07-13T18:32:33;4.32;;;1.50;;
42760;SDS011;31672;47.638;19.026;2023-07-13T18:37:39;2.67;;;1.70;;
42760;SDS011;31672;47.638;19.026;2023-07-13T18:42:43;2.08;;;1.60;;
42760;SDS011;31672;47.638;19.026;2023-07-13T18:47:54;2.38;;;1.73;;
42760;SDS011;31672;47.638;19.026;2023-07-13T18:53:02;2.95;;;1.80;;
42760;SDS011;31672;47.638;19.026;2023-07-13T18:58:06;2.80;;;1.73;;
42760;SDS011;31672;47.638;19.026;2023-07-13T19:03:14;4.90;;;1.65;;
42760;SDS011;31672;47.638;19.026;2023-07-13T19:08:24;2.20;;;1.50;;
42760;SDS011;31672;47.638;19.026;2023-07-13T19:13:28;2.30;;;1.60;;
42760;SDS011;31672;47.638;19.026;2023-07-13T19:18:37;2.38;;;1.70;;
42760;SDS011;31672;47.638;19.026;2023-07-13T19:23:42;2.90;;;1.90;;
42760;SDS011;31672;47.638;19.026;2023-07-13T19:28:50;2.75;;;2.03;;
42760;SDS011;31672;47.638;19.026;2023-07-13T19:33:57;2.85;;;2.30;;
42760;SDS011;31672;47.638;19.026;2023-07-13T19:39:01;4.03;;;1.70;;
42760;SDS011;31672;47.638;19.026;2023-07-13T19:44:08;4.07;;;1.85;;
42760;SDS011;31672;47.638;19.026;2023-07-13T19:49:16;2.83;;;1.67;;
42760;SDS011;31672;47.638;19.026;2023-07-13T19:54:19;5.43;;;2.00;;
42760;SDS011;31672;47.638;19.026;2023-07-13T20:04:33;8.73;;;2.47;;
42760;SDS011;31672;47.638;19.026;2023-07-13T20:09:37;3.53;;;1.60;;
42760;SDS011;31672;47.638;19.026;2023-07-13T20:14:46;3.78;;;1.98;;
42760;SDS011;31672;47.638;19.026;2023-07-13T20:19:51;2.08;;;1.67;;
42760;SDS011;31672;47.638;19.026;2023-07-13T20:24:59;3.63;;;1.73;;
42760;SDS011;31672;47.638;19.026;2023-07-13T20:30:03;2.40;;;1.67;;
42760;SDS011;31672;47.638;19.026;2023-07-13T20:40:26;2.17;;;1.40;;
42760;SDS011;31672;47.638;19.026;2023-07-13T20:45:33;3.70;;;2.00;;
42760;SDS011;31672;47.638;19.026;2023-07-13T20:50:39;2.83;;;1.60;;
42760;SDS011;31672;47.638;19.026;2023-07-13T20:55:43;2.10;;;1.50;;
42760;SDS011;31672;47.638;19.026;2023-07-13T21:00:46;2.25;;;1.38;;
42760;SDS011;31672;47.638;19.026;2023-07-13T21:05:52;2.22;;;1.30;;
42760;SDS011;31672;47.638;19.026;2023-07-13T21:10:58;1.60;;;1.30;;
42760;SDS011;31672;47.638;19.026;2023-07-13T21:21:24;2.72;;;1.70;;
42760;SDS011;31672;47.638;19.026;2023-07-13T21:26:28;2.13;;;1.48;;
42760;SDS011;31672;47.638;19.026;2023-07-13T21:31:33;2.60;;;1.50;;
42760;SDS011;31672;47.638;19.026;2023-07-13T21:36:38;3.05;;;1.48;;
42760;SDS011;31672;47.638;19.026;2023-07-13T21:41:42;2.90;;;1.42;;
42760;SDS011;31672;47.638;19.026;2023-07-13T21:46:47;2.90;;;1.63;;
42760;SDS011;31672;47.638;19.026;2023-07-13T21:51:51;2.90;;;1.65;;
42760;SDS011;31672;47.638;19.026;2023-07-13T21:56:55;2.60;;;2.05;;
42760;SDS011;31672;47.638;19.026;2023-07-13T22:01:59;2.88;;;1.95;;
42760;SDS011;31672;47.638;19.026;2023-07-13T22:07:03;4.07;;;2.25;;
42760;SDS011;31672;47.638;19.026;2023-07-13T22:12:08;3.22;;;2.00;;
42760;SDS011;31672;47.638;19.026;2023-07-13T22:17:12;2.92;;;1.80;;
42760;SDS011;31672;47.638;19.026;2023-07-13T22:22:18;3.00;;;2.00;;
42760;SDS011;31672;47.638;19.026;2023-07-13T22:27:22;4.68;;;2.30;;
42760;SDS011;31672;47.638;19.026;2023-07-13T22:32:30;3.15;;;2.03;;
42760;SDS011;31672;47.638;19.026;2023-07-13T22:37:36;2.65;;;2.00;;
42760;SDS011;31672;47.638;19.026;2023-07-13T22:42:40;5.70;;;2.30;;
42760;SDS011;31672;47.638;19.026;2023-07-13T22:47:44;3.88;;;1.85;;
42760;SDS011;31672;47.638;19.026;2023-07-13T22:52:48;3.95;;;2.33;;
42760;SDS011;31672;47.638;19.026;2023-07-13T22:57:52;2.53;;;2.05;;
42760;SDS011;31672;47.638;19.026;2023-07-13T23:02:56;3.03;;;2.40;;
42760;SDS011;31672;47.638;19.026;2023-07-13T23:07:59;3.47;;;2.28;;
42760;SDS011;31672;47.638;19.026;2023-07-13T23:13:03;3.00;;;2.40;;
42760;SDS011;31672;47.638;19.026;2023-07-13T23:18:08;3.60;;;2.30;;
42760;SDS011;31672;47.638;19.026;2023-07-13T23:23:15;3.50;;;2.35;;
42760;SDS011;31672;47.638;19.026;2023-07-13T23:28:20;3.97;;;2.45;;
42760;SDS011;31672;47.638;19.026;2023-07-13T23:33:25;3.58;;;2.45;;
42760;SDS011;31672;47.638;19.026;2023-07-13T23:38:30;3.53;;;2.50;;
42760;SDS011;31672;47.638;19.026;2023-07-13T23:43:34;4.25;;;2.38;;
42760;SDS011;31672;47.638;19.026;2023-07-13T23:48:37;3.85;;;2.45;;
42760;SDS011;31672;47.638;19.026;2023-07-13T23:53:41;2.90;;;2.40;;
42760;SDS011;31672;47.638;19.026;2023-07-13T23:58:44;3.58;;;2.65;;
